createdAt,value
2023-02-14T00:00:22.167Z,86.37
2023-02-14T00:01:18.908Z,87.06
2023-02-14T00:02:15.474Z,86.49
2023-02-14T00:03:14.500Z,86.11
2023-02-14T00:04:11.834Z,86.41
2023-02-14T00:05:08.729Z,86.01
2023-02-14T00:06:09.991Z,86.28
2023-02-14T00:07:06.697Z,85.75
2023-02-14T00:08:03.320Z,85.87
2023-02-14T00:08:59.967Z,85.48
2023-02-14T00:09:56.570Z,85.72
2023-02-14T00:10:53.166Z,85.81
2023-02-14T00:11:50.238Z,85.74
2023-02-14T00:12:46.832Z,85.02
2023-02-14T00:14:03.330Z,84.90
2023-02-14T00:15:18.473Z,84.10
2023-02-14T00:16:15.108Z,84.33
2023-02-14T00:17:11.692Z,83.91
2023-02-14T00:18:08.283Z,83.89
2023-02-14T00:19:04.967Z,83.94
2023-02-14T00:20:01.566Z,83.50
2023-02-14T00:21:00.669Z,83.61
2023-02-14T00:21:57.576Z,84.29
2023-02-14T00:22:54.282Z,84.02
2023-02-14T00:23:50.909Z,84.07
2023-02-14T00:24:47.655Z,83.74
2023-02-14T00:25:44.237Z,82.95
2023-02-14T00:26:41.814Z,82.52
2023-02-14T00:27:38.422Z,83.29
2023-02-14T00:28:34.949Z,84.52
2023-02-14T00:29:33.071Z,84.46
2023-02-14T00:30:29.966Z,84.95
2023-02-14T00:31:26.838Z,84.43
2023-02-14T00:32:23.772Z,84.83
2023-02-14T00:33:20.396Z,84.50
2023-02-14T00:34:18.335Z,84.71
2023-02-14T00:35:14.902Z,85.11
2023-02-14T00:36:12.129Z,85.02
2023-02-14T00:37:09.017Z,85.09
2023-02-14T00:38:05.703Z,86.01
2023-02-14T00:39:07.189Z,85.60
2023-02-14T00:40:05.798Z,85.86
2023-02-14T00:41:03.050Z,85.91
2023-02-14T00:41:59.628Z,86.36
2023-02-14T00:42:56.185Z,86.27
2023-02-14T00:43:54.065Z,86.37
2023-02-14T00:44:50.650Z,86.38
2023-02-14T00:45:47.220Z,86.44
2023-02-14T00:46:44.341Z,86.08
2023-02-14T00:47:40.941Z,85.99
2023-02-14T00:48:37.615Z,86.19
2023-02-14T00:49:34.320Z,86.12
2023-02-14T00:50:30.922Z,85.87
2023-02-14T00:51:27.642Z,85.66
2023-02-14T00:52:24.213Z,86.76
2023-02-14T00:53:20.834Z,86.43
2023-02-14T00:54:17.508Z,86.45
2023-02-14T00:55:14.096Z,86.55
2023-02-14T00:56:10.829Z,86.55
2023-02-14T00:57:07.409Z,86.73
2023-02-14T00:58:03.996Z,86.19
2023-02-14T00:59:00.605Z,86.88
2023-02-14T00:59:57.237Z,86.79
2023-02-14T01:00:53.968Z,86.46
2023-02-14T01:01:50.738Z,86.68
2023-02-14T01:02:47.391Z,86.31
2023-02-14T01:03:44.065Z,85.71
2023-02-14T01:04:40.656Z,85.61
2023-02-14T01:05:37.277Z,86.10
2023-02-14T01:06:34.124Z,85.89
2023-02-14T01:07:30.779Z,86.29
2023-02-14T01:08:27.511Z,86.47
2023-02-14T01:09:24.185Z,86.82
2023-02-14T01:10:20.810Z,87.22
2023-02-14T01:11:19.958Z,87.51
2023-02-14T01:12:16.496Z,87.43
2023-02-14T01:13:14.265Z,88.01
2023-02-14T01:14:11.470Z,88.07
2023-02-14T01:15:08.495Z,87.84
2023-02-14T01:16:11.185Z,87.43
2023-02-14T01:17:07.822Z,87.42
2023-02-14T01:18:04.453Z,87.37
2023-02-14T01:19:01.374Z,87.53
2023-02-14T01:19:57.953Z,88.35
2023-02-14T01:20:54.581Z,88.23
2023-02-14T01:21:51.118Z,87.97
2023-02-14T01:22:47.667Z,88.58
2023-02-14T01:23:44.892Z,88.50
2023-02-14T01:24:41.465Z,88.40
2023-02-14T01:25:39.019Z,88.24
2023-02-14T01:26:36.180Z,88.13
2023-02-14T01:27:33.330Z,86.73
2023-02-14T01:28:29.921Z,86.90
2023-02-14T01:29:26.472Z,86.50
2023-02-14T01:30:23.131Z,86.09
2023-02-14T01:31:22.601Z,86.11
2023-02-14T01:32:19.326Z,86.06
2023-02-14T01:33:15.859Z,86.28
2023-02-14T01:34:12.882Z,86.03
2023-02-14T01:35:10.227Z,85.63
2023-02-14T01:36:07.601Z,86.06
2023-02-14T01:37:04.189Z,85.64
2023-02-14T01:38:00.728Z,85.87
2023-02-14T01:39:00.380Z,86.15
2023-02-14T01:39:56.933Z,86.14
2023-02-14T01:40:53.613Z,86.27
2023-02-14T01:41:50.290Z,86.75
2023-02-14T01:42:46.941Z,86.25
2023-02-14T01:44:06.002Z,86.78
2023-02-14T01:45:06.212Z,86.69
2023-02-14T01:46:02.891Z,86.72
2023-02-14T01:47:03.223Z,87.01
2023-02-14T01:48:00.268Z,86.97
2023-02-14T01:49:09.098Z,86.72
2023-02-14T01:50:14.860Z,87.26
2023-02-14T01:51:11.597Z,87.45
2023-02-14T01:52:22.408Z,86.99
2023-02-14T01:53:24.973Z,87.26
2023-02-14T01:54:24.253Z,87.54
2023-02-14T01:55:24.808Z,87.12
2023-02-14T01:56:27.530Z,87.49
2023-02-14T01:57:29.411Z,87.23
2023-02-14T01:58:29.575Z,87.01
2023-02-14T01:59:31.206Z,86.95
2023-02-14T02:00:46.660Z,87.71
2023-02-14T02:01:45.123Z,87.23
2023-02-14T02:02:41.741Z,87.64
2023-02-14T02:03:44.271Z,87.24
2023-02-14T02:04:46.880Z,87.56
2023-02-14T02:05:48.843Z,88.25
2023-02-14T02:06:52.297Z,87.71
2023-02-14T02:07:50.444Z,87.88
2023-02-14T02:09:31.220Z,88.06
2023-02-14T02:10:29.154Z,87.92
2023-02-14T02:11:26.623Z,87.34
2023-02-14T02:12:23.623Z,87.21
2023-02-14T02:13:22.103Z,87.68
2023-02-14T02:14:21.756Z,87.51
2023-02-14T02:15:19.304Z,87.26
2023-02-14T02:16:28.208Z,87.69
2023-02-14T02:17:39.828Z,87.82
2023-02-14T02:18:55.085Z,87.59
2023-02-14T02:20:29.091Z,87.72
2023-02-14T02:21:55.022Z,87.06
2023-02-14T02:23:13.241Z,86.56
2023-02-14T02:24:34.571Z,87.16
2023-02-14T02:25:52.942Z,87.12
2023-02-14T02:26:49.529Z,87.64
2023-02-14T02:28:15.452Z,87.39
2023-02-14T02:29:26.892Z,86.58
2023-02-14T02:30:45.215Z,86.53
2023-02-14T02:31:47.594Z,86.74
2023-02-14T02:32:55.667Z,87.31
2023-02-14T02:34:01.316Z,86.81
2023-02-14T02:35:30.648Z,87.72
2023-02-14T02:36:55.282Z,87.47
2023-02-14T02:37:51.819Z,87.97
2023-02-14T02:39:05.691Z,88.02
2023-02-14T02:40:21.056Z,88.05
2023-02-14T02:41:24.177Z,88.46
2023-02-14T02:42:46.511Z,88.43
2023-02-14T02:44:07.911Z,88.77
2023-02-14T02:45:58.670Z,88.58
2023-02-14T02:47:07.885Z,89.04
2023-02-14T02:48:15.367Z,88.59
2023-02-14T02:49:45.478Z,88.75
2023-02-14T02:51:04.945Z,88.79
2023-02-14T02:52:22.893Z,89.19
2023-02-14T02:53:41.247Z,89.21
2023-02-14T02:54:44.704Z,89.00
2023-02-14T02:56:16.434Z,88.75
2023-02-14T02:57:20.012Z,89.06
2023-02-14T02:58:18.570Z,89.19
2023-02-14T02:59:21.085Z,88.94
2023-02-14T03:00:18.964Z,89.04
2023-02-14T03:01:20.874Z,88.57
2023-02-14T03:02:29.660Z,88.95
2023-02-14T03:03:46.708Z,88.68
2023-02-14T03:04:55.991Z,89.15
2023-02-14T03:05:52.888Z,89.37
2023-02-14T03:06:50.754Z,89.35
2023-02-14T03:07:48.954Z,89.72
2023-02-14T03:08:45.541Z,89.64
2023-02-14T03:09:42.216Z,89.25
2023-02-14T03:10:39.625Z,89.56
2023-02-14T03:11:39.644Z,89.38
2023-02-14T03:12:38.801Z,89.53
2023-02-14T03:13:49.388Z,89.34
2023-02-14T03:15:02.716Z,89.07
2023-02-14T03:16:20.485Z,89.42
2023-02-14T03:17:34.626Z,89.05
2023-02-14T03:19:02.067Z,89.52
2023-02-14T03:20:20.264Z,89.69
2023-02-14T03:21:34.202Z,88.94
2023-02-14T03:22:43.670Z,89.26
2023-02-14T03:23:51.655Z,89.41
2023-02-14T03:25:11.641Z,88.61
2023-02-14T03:26:18.479Z,89.25
2023-02-14T03:27:27.061Z,88.82
2023-02-14T03:28:42.735Z,89.38
2023-02-14T03:29:58.854Z,89.56
2023-02-14T03:31:06.982Z,89.46
2023-02-14T03:32:21.827Z,88.94
2023-02-14T03:33:32.143Z,88.56
2023-02-14T03:34:41.083Z,88.80
2023-02-14T03:35:51.922Z,88.25
2023-02-14T03:36:59.114Z,88.59
2023-02-14T03:38:00.556Z,89.05
2023-02-14T03:39:15.517Z,89.15
2023-02-14T03:40:19.542Z,89.20
2023-02-14T03:41:23.842Z,89.28
2023-02-14T03:42:28.590Z,89.84
2023-02-14T03:43:31.786Z,89.91
2023-02-14T03:44:31.095Z,90.53
2023-02-14T03:45:39.574Z,90.37
2023-02-14T03:46:41.658Z,90.80
2023-02-14T03:47:41.958Z,90.38
2023-02-14T03:48:40.789Z,90.81
2023-02-14T03:49:41.444Z,91.39
2023-02-14T03:50:41.162Z,91.46
2023-02-14T03:51:39.159Z,91.35
2023-02-14T03:52:37.816Z,91.48
2023-02-14T03:53:38.633Z,92.09
2023-02-14T03:54:36.413Z,91.79
2023-02-14T03:55:40.437Z,91.28
2023-02-14T03:56:48.258Z,91.96
2023-02-14T03:57:58.689Z,91.79
2023-02-14T03:59:00.844Z,91.80
2023-02-14T03:59:57.800Z,91.58
2023-02-14T04:01:00.848Z,92.13
2023-02-14T04:02:29.843Z,91.81
2023-02-14T04:03:29.309Z,91.88
2023-02-14T04:04:28.905Z,91.56
2023-02-14T04:05:28.075Z,91.31
2023-02-14T04:06:24.773Z,91.44
2023-02-14T04:07:23.108Z,91.00
2023-02-14T04:08:25.695Z,91.30
2023-02-14T04:09:22.290Z,91.59
2023-02-14T04:10:20.049Z,90.96
2023-02-14T04:11:16.768Z,91.33
2023-02-14T04:12:15.544Z,91.51
2023-02-14T04:13:12.675Z,91.63
2023-02-14T04:14:09.313Z,91.33
2023-02-14T04:15:06.590Z,91.00
2023-02-14T04:16:03.699Z,91.27
2023-02-14T04:17:18.989Z,92.06
2023-02-14T04:18:34.307Z,91.96
2023-02-14T04:19:30.955Z,91.89
2023-02-14T04:20:28.674Z,91.98
2023-02-14T04:21:25.617Z,91.43
2023-02-14T04:22:22.202Z,91.94
2023-02-14T04:23:18.807Z,91.44
2023-02-14T04:24:15.408Z,91.76
2023-02-14T04:25:12.834Z,91.77
2023-02-14T04:26:09.506Z,91.83
2023-02-14T04:27:13.010Z,91.62
2023-02-14T04:28:10.019Z,91.74
2023-02-14T04:29:06.594Z,91.91
2023-02-14T04:30:03.738Z,92.06
2023-02-14T04:31:05.424Z,91.43
2023-02-14T04:32:02.236Z,92.20
2023-02-14T04:32:58.894Z,92.29
2023-02-14T04:33:55.896Z,91.63
2023-02-14T04:34:52.551Z,91.54
2023-02-14T04:35:49.218Z,91.43
2023-02-14T04:36:45.797Z,92.16
2023-02-14T04:37:42.603Z,91.87
2023-02-14T04:38:39.314Z,91.88
2023-02-14T04:39:36.486Z,91.47
2023-02-14T04:40:33.186Z,91.97
2023-02-14T04:41:29.742Z,92.36
2023-02-14T04:42:26.382Z,92.39
2023-02-14T04:43:22.937Z,91.72
2023-02-14T04:44:19.568Z,92.23
2023-02-14T04:45:16.142Z,91.64
2023-02-14T04:46:12.745Z,91.47
2023-02-14T04:47:09.664Z,91.40
2023-02-14T04:48:06.301Z,91.68
2023-02-14T04:49:02.943Z,91.68
2023-02-14T04:49:59.537Z,91.62
2023-02-14T04:50:56.425Z,91.82
2023-02-14T04:51:53.137Z,91.38
2023-02-14T04:52:49.757Z,92.02
2023-02-14T04:53:46.545Z,92.00
2023-02-14T04:54:43.360Z,92.26
2023-02-14T04:55:39.946Z,91.92
2023-02-14T04:56:36.995Z,92.00
2023-02-14T04:57:33.664Z,92.11
2023-02-14T04:58:30.228Z,92.41
2023-02-14T04:59:26.941Z,92.21
2023-02-14T05:00:24.283Z,92.04
2023-02-14T05:01:21.045Z,91.91
2023-02-14T05:02:17.803Z,92.26
2023-02-14T05:03:14.458Z,91.80
2023-02-14T05:04:12.488Z,92.26
2023-02-14T05:05:09.121Z,92.33
2023-02-14T05:06:05.999Z,92.38
2023-02-14T05:07:03.001Z,92.07
2023-02-14T05:07:59.649Z,92.04
2023-02-14T05:08:56.758Z,91.79
2023-02-14T05:09:53.365Z,91.71
2023-02-14T05:10:49.938Z,91.51
2023-02-14T05:11:46.520Z,91.37
2023-02-14T05:12:43.295Z,91.86
2023-02-14T05:13:39.964Z,91.29
2023-02-14T05:14:36.623Z,91.18
2023-02-14T05:15:33.333Z,90.62
2023-02-14T05:16:29.938Z,90.43
2023-02-14T05:17:26.555Z,89.80
2023-02-14T05:18:23.148Z,90.27
2023-02-14T05:19:19.857Z,90.18
2023-02-14T05:20:16.584Z,90.24
2023-02-14T05:21:13.568Z,90.87
2023-02-14T05:22:12.505Z,91.47
2023-02-14T05:23:13.742Z,91.01
2023-02-14T05:24:12.521Z,91.54
2023-02-14T05:25:09.191Z,91.49
2023-02-14T05:26:06.068Z,90.83
2023-02-14T05:27:02.771Z,90.60
2023-02-14T05:27:59.422Z,90.17
2023-02-14T05:28:56.765Z,90.70
2023-02-14T05:29:53.420Z,90.86
2023-02-14T05:30:51.419Z,90.97
2023-02-14T05:31:48.147Z,91.31
2023-02-14T05:32:44.770Z,91.06
2023-02-14T05:33:41.381Z,91.74
2023-02-14T05:34:37.988Z,92.24
2023-02-14T05:35:34.652Z,92.30
2023-02-14T05:36:31.327Z,92.22
2023-02-14T05:37:27.944Z,91.70
2023-02-14T05:38:24.602Z,91.85
2023-02-14T05:39:21.281Z,91.51
2023-02-14T05:40:18.125Z,91.58
2023-02-14T05:41:14.777Z,90.82
2023-02-14T05:42:12.846Z,90.49
2023-02-14T05:43:10.154Z,90.51
2023-02-14T05:44:06.847Z,90.11
2023-02-14T05:45:03.511Z,89.63
2023-02-14T05:46:00.282Z,89.25
2023-02-14T05:46:56.925Z,89.58
2023-02-14T05:47:53.496Z,89.38
2023-02-14T05:48:50.084Z,89.31
2023-02-14T05:49:46.630Z,89.08
2023-02-14T05:50:45.242Z,89.32
2023-02-14T05:51:41.845Z,89.23
2023-02-14T05:52:38.662Z,89.51
2023-02-14T05:53:35.698Z,89.60
2023-02-14T05:54:32.287Z,89.35
2023-02-14T05:55:28.972Z,88.85
2023-02-14T05:56:25.711Z,88.67
2023-02-14T05:57:22.397Z,88.81
2023-02-14T05:58:18.969Z,88.16
2023-02-14T05:59:15.646Z,87.78
2023-02-14T06:00:12.952Z,87.38
2023-02-14T06:01:09.571Z,87.29
2023-02-14T06:02:06.291Z,87.31
2023-02-14T06:03:03.220Z,87.94
2023-02-14T06:03:59.796Z,87.94
2023-02-14T06:04:56.407Z,87.80
2023-02-14T06:05:52.995Z,88.14
2023-02-14T06:06:49.581Z,88.53
2023-02-14T06:07:50.650Z,87.86
2023-02-14T06:08:47.299Z,88.20
2023-02-14T06:09:43.881Z,87.40
2023-02-14T06:10:40.581Z,86.98
2023-02-14T06:11:37.225Z,87.21
2023-02-14T06:12:33.815Z,87.13
2023-02-14T06:13:30.774Z,86.90
2023-02-14T06:14:27.634Z,87.53
2023-02-14T06:15:24.460Z,87.46
2023-02-14T06:16:21.151Z,87.38
2023-02-14T06:17:17.765Z,87.29
2023-02-14T06:18:15.220Z,87.36
2023-02-14T06:19:11.812Z,87.53
2023-02-14T06:20:12.345Z,87.42
2023-02-14T06:21:08.923Z,86.46
2023-02-14T06:22:05.621Z,86.25
2023-02-14T06:23:02.569Z,85.82
2023-02-14T06:23:59.203Z,85.86
2023-02-14T06:24:55.794Z,85.70
2023-02-14T06:25:52.353Z,85.40
2023-02-14T06:26:48.925Z,86.20
2023-02-14T06:27:49.058Z,86.11
2023-02-14T06:28:45.849Z,86.11
2023-02-14T06:29:42.422Z,85.36
2023-02-14T06:30:39.227Z,84.90
2023-02-14T06:31:36.263Z,84.17
2023-02-14T06:32:32.957Z,83.78
2023-02-14T06:33:29.576Z,83.37
2023-02-14T06:34:26.146Z,83.70
2023-02-14T06:35:23.108Z,84.12
2023-02-14T06:36:21.796Z,83.09
2023-02-14T06:37:18.407Z,82.59
2023-02-14T06:38:15.067Z,81.91
2023-02-14T06:39:11.679Z,81.75
2023-02-14T06:40:10.127Z,81.23
2023-02-14T06:41:08.219Z,81.56
2023-02-14T06:42:04.966Z,82.33
2023-02-14T06:43:01.628Z,81.43
2023-02-14T06:43:58.244Z,80.62
2023-02-14T06:44:54.832Z,80.06
2023-02-14T06:45:51.469Z,79.65
2023-02-14T06:46:48.088Z,80.02
2023-02-14T06:47:46.027Z,79.47
2023-02-14T06:48:43.067Z,78.45
2023-02-14T06:49:39.981Z,77.67
2023-02-14T06:50:37.458Z,77.81
2023-02-14T06:51:34.067Z,78.50
2023-02-14T06:52:34.014Z,78.96
2023-02-14T06:53:30.590Z,78.07
2023-02-14T06:54:27.271Z,78.70
2023-02-14T06:55:23.886Z,77.99
2023-02-14T06:56:20.479Z,77.58
2023-02-14T06:57:17.066Z,77.75
2023-02-14T06:58:14.077Z,78.02
2023-02-14T06:59:10.862Z,78.31
2023-02-14T07:00:08.571Z,78.21
2023-02-14T07:01:05.464Z,77.78
2023-02-14T07:02:02.101Z,77.97
2023-02-14T07:02:58.783Z,78.45
2023-02-14T07:03:55.463Z,78.41
2023-02-14T07:04:52.164Z,78.23
2023-02-14T07:05:48.909Z,78.20
2023-02-14T07:06:46.304Z,78.23
2023-02-14T07:07:42.920Z,77.50
2023-02-14T07:08:39.540Z,77.27
2023-02-14T07:09:36.290Z,77.52
2023-02-14T07:10:34.292Z,76.40
2023-02-14T07:11:30.923Z,75.37
2023-02-14T07:12:27.494Z,75.68
2023-02-14T07:13:25.264Z,75.92
2023-02-14T07:14:21.873Z,74.36
2023-02-14T07:15:18.810Z,74.01
2023-02-14T07:16:15.414Z,73.87
2023-02-14T07:17:12.084Z,74.22
2023-02-14T07:18:10.586Z,75.34
2023-02-14T07:19:07.258Z,74.60
2023-02-14T07:20:04.994Z,73.88
2023-02-14T07:21:02.076Z,73.49
2023-02-14T07:21:58.948Z,73.92
2023-02-14T07:22:55.683Z,73.30
2023-02-14T07:23:52.279Z,73.81
2023-02-14T07:24:48.936Z,72.34
2023-02-14T07:25:45.619Z,73.82
2023-02-14T07:26:42.242Z,73.48
2023-02-14T07:27:39.576Z,72.61
2023-02-14T07:28:36.256Z,71.24
2023-02-14T07:29:32.931Z,71.13
2023-02-14T07:30:29.675Z,71.84
2023-02-14T07:31:26.390Z,70.58
2023-02-14T07:32:23.666Z,71.28
2023-02-14T07:33:20.427Z,71.45
2023-02-14T07:34:17.085Z,72.02
2023-02-14T07:35:15.261Z,71.64
2023-02-14T07:36:12.039Z,71.20
2023-02-14T07:37:08.831Z,70.79
2023-02-14T07:38:05.492Z,70.96
2023-02-14T07:39:02.073Z,69.86
2023-02-14T07:39:58.742Z,69.70
2023-02-14T07:40:55.336Z,70.94
2023-02-14T07:41:51.943Z,71.24
2023-02-14T07:42:58.708Z,68.86
2023-02-14T07:43:55.255Z,70.43
2023-02-14T07:44:51.890Z,69.34
2023-02-14T07:45:48.938Z,70.26
2023-02-14T07:46:45.524Z,69.90
2023-02-14T07:47:42.089Z,71.43
2023-02-14T07:48:39.368Z,69.89
2023-02-14T07:49:36.634Z,68.77
2023-02-14T07:50:33.277Z,69.34
2023-02-14T07:51:29.907Z,69.79
2023-02-14T07:52:26.807Z,68.23
2023-02-14T07:53:24.570Z,69.47
2023-02-14T07:54:21.316Z,70.30
2023-02-14T07:55:19.350Z,70.44
2023-02-14T07:56:16.051Z,70.69
2023-02-14T07:57:12.645Z,70.52
2023-02-14T07:58:09.451Z,70.82
2023-02-14T07:59:06.015Z,71.07
2023-02-14T08:00:03.718Z,71.34
2023-02-14T08:01:00.695Z,70.90
2023-02-14T08:01:57.526Z,69.80
2023-02-14T08:02:56.083Z,69.57
2023-02-14T08:03:52.753Z,70.28
2023-02-14T08:04:49.328Z,72.05
2023-02-14T08:05:57.115Z,71.19
2023-02-14T08:06:54.612Z,70.58
2023-02-14T08:07:51.178Z,70.28
2023-02-14T08:08:48.330Z,68.86
2023-02-14T08:09:44.973Z,69.32
2023-02-14T08:10:41.522Z,69.90
2023-02-14T08:11:57.005Z,69.30
2023-02-14T08:12:59.304Z,71.19
2023-02-14T08:13:55.910Z,69.50
2023-02-14T08:14:52.508Z,70.54
2023-02-14T08:16:11.789Z,70.16
2023-02-14T08:17:10.199Z,70.91
2023-02-14T08:18:06.766Z,70.79
2023-02-14T08:19:03.934Z,69.70
2023-02-14T08:20:00.506Z,70.15
2023-02-14T08:20:57.494Z,69.59
2023-02-14T08:21:54.290Z,70.53
2023-02-14T08:22:50.925Z,70.15
2023-02-14T08:23:47.688Z,70.05
2023-02-14T08:24:45.114Z,70.43
2023-02-14T08:25:41.810Z,71.18
2023-02-14T08:26:38.336Z,70.87
2023-02-14T08:27:34.984Z,69.54
2023-02-14T08:28:33.274Z,69.85
2023-02-14T08:29:30.002Z,70.46
2023-02-14T08:30:26.632Z,70.92
2023-02-14T08:31:35.275Z,69.08
2023-02-14T08:32:32.787Z,71.26
2023-02-14T08:33:29.678Z,71.26
2023-02-14T08:34:26.414Z,71.31
2023-02-14T08:35:25.072Z,71.10
2023-02-14T08:36:22.851Z,71.03
2023-02-14T08:37:19.489Z,71.80
2023-02-14T08:38:16.160Z,72.29
2023-02-14T08:39:12.810Z,72.74
2023-02-14T08:40:09.889Z,72.08
2023-02-14T08:41:08.812Z,71.37
2023-02-14T08:42:06.590Z,70.27
2023-02-14T08:43:05.728Z,69.75
2023-02-14T08:44:02.932Z,69.74
2023-02-14T08:44:59.636Z,70.73
2023-02-14T08:45:56.242Z,70.57
2023-02-14T08:46:52.916Z,72.18
2023-02-14T08:47:49.587Z,72.57
2023-02-14T08:48:46.242Z,72.35
2023-02-14T08:49:42.867Z,72.27
2023-02-14T08:50:40.343Z,72.56
2023-02-14T08:51:36.928Z,71.46
2023-02-14T08:52:33.514Z,70.53
2023-02-14T08:53:30.177Z,71.26
2023-02-14T08:54:26.741Z,70.46
2023-02-14T08:55:23.369Z,70.05
2023-02-14T08:56:22.613Z,70.63
2023-02-14T08:57:19.260Z,71.79
2023-02-14T08:58:15.949Z,71.17
2023-02-14T08:59:12.614Z,71.47
2023-02-14T09:00:09.953Z,71.44
2023-02-14T09:01:14.507Z,71.56
2023-02-14T09:02:14.677Z,71.44
2023-02-14T09:03:11.268Z,71.07
2023-02-14T09:04:08.046Z,71.56
2023-02-14T09:05:06.227Z,71.54
2023-02-14T09:06:07.581Z,71.80
2023-02-14T09:07:04.655Z,71.52
2023-02-14T09:08:02.854Z,70.99
2023-02-14T09:09:01.506Z,70.95
2023-02-14T09:09:59.215Z,71.20
2023-02-14T09:10:55.818Z,69.58
2023-02-14T09:11:52.419Z,69.90
2023-02-14T09:12:49.017Z,69.48
2023-02-14T09:13:46.619Z,69.22
2023-02-14T09:14:44.145Z,69.52
2023-02-14T09:15:40.802Z,69.20
2023-02-14T09:16:37.461Z,69.76
2023-02-14T09:17:34.340Z,68.77
2023-02-14T09:18:30.970Z,69.54
2023-02-14T09:19:27.655Z,70.53
2023-02-14T09:20:24.372Z,71.20
2023-02-14T09:21:25.299Z,71.27
2023-02-14T09:22:22.123Z,71.85
2023-02-14T09:23:18.797Z,71.20
2023-02-14T09:24:15.412Z,71.25
2023-02-14T09:25:12.727Z,70.46
2023-02-14T09:26:12.318Z,70.00
2023-02-14T09:27:09.468Z,70.43
2023-02-14T09:28:06.049Z,70.47
2023-02-14T09:29:02.666Z,69.89
2023-02-14T09:29:59.347Z,69.76
2023-02-14T09:30:56.518Z,69.54
2023-02-14T09:31:54.266Z,69.99
2023-02-14T09:32:52.455Z,69.53
2023-02-14T09:33:50.342Z,69.53
2023-02-14T09:34:46.925Z,70.81
2023-02-14T09:35:43.498Z,71.67
2023-02-14T09:36:59.445Z,72.03
2023-02-14T09:37:56.047Z,72.26
2023-02-14T09:38:52.581Z,72.43
2023-02-14T09:39:49.164Z,72.39
2023-02-14T09:40:46.660Z,71.97
2023-02-14T09:41:51.057Z,71.74
2023-02-14T09:43:01.765Z,72.14
2023-02-14T09:44:08.002Z,71.42
2023-02-14T09:45:18.829Z,70.84
2023-02-14T09:46:18.527Z,70.61
2023-02-14T09:47:44.409Z,70.97
2023-02-14T09:48:45.093Z,72.12
2023-02-14T09:49:42.546Z,72.52
2023-02-14T09:50:45.283Z,72.46
2023-02-14T09:51:47.739Z,71.68
2023-02-14T09:52:46.974Z,71.59
2023-02-14T09:53:51.391Z,70.70
2023-02-14T09:54:54.689Z,70.58
2023-02-14T09:56:11.655Z,71.60
2023-02-14T09:57:21.925Z,71.67
2023-02-14T09:58:59.423Z,72.22
2023-02-14T10:00:23.397Z,73.12
2023-02-14T10:01:35.335Z,73.15
2023-02-14T10:02:47.517Z,71.42
2023-02-14T10:03:57.372Z,71.64
2023-02-14T10:05:06.990Z,71.96
2023-02-14T10:06:18.316Z,72.59
2023-02-14T10:07:33.855Z,73.83
2023-02-14T10:09:09.907Z,71.94
2023-02-14T10:10:18.974Z,71.57
2023-02-14T10:11:22.093Z,71.76
2023-02-14T10:12:37.751Z,70.51
2023-02-14T10:13:49.415Z,71.02
2023-02-14T10:14:47.417Z,70.91
2023-02-14T10:15:48.616Z,70.55
2023-02-14T10:16:56.592Z,70.72
2023-02-14T10:17:58.903Z,72.22
2023-02-14T10:19:01.682Z,72.92
2023-02-14T10:20:04.711Z,72.30
2023-02-14T10:21:03.056Z,72.27
2023-02-14T10:22:07.052Z,72.32
2023-02-14T10:23:32.449Z,71.77
2023-02-14T10:24:36.014Z,72.69
2023-02-14T10:25:43.934Z,72.33
2023-02-14T10:26:41.416Z,73.13
2023-02-14T10:27:42.500Z,72.53
2023-02-14T10:28:47.222Z,70.98
2023-02-14T10:29:43.917Z,70.59
2023-02-14T10:30:47.252Z,71.99
2023-02-14T10:31:56.554Z,70.97
2023-02-14T10:33:16.099Z,70.45
2023-02-14T10:34:16.090Z,71.03
2023-02-14T10:35:27.828Z,71.57
2023-02-14T10:36:41.264Z,71.60
2023-02-14T10:38:13.410Z,71.10
2023-02-14T10:39:28.698Z,71.09
2023-02-14T10:40:55.176Z,71.58
2023-02-14T10:42:11.891Z,72.64
2023-02-14T10:43:30.972Z,71.56
2023-02-14T10:44:46.306Z,71.91
2023-02-14T10:45:55.374Z,72.25
2023-02-14T10:47:02.866Z,72.19
2023-02-14T10:48:17.099Z,72.95
2023-02-14T10:49:25.868Z,73.55
2023-02-14T10:50:52.880Z,73.09
2023-02-14T10:52:24.189Z,72.06
2023-02-14T10:53:36.272Z,71.60
2023-02-14T10:54:39.090Z,72.80
2023-02-14T10:55:59.636Z,71.68
2023-02-14T10:57:02.685Z,71.76
2023-02-14T10:58:02.831Z,71.78
2023-02-14T10:59:08.775Z,72.15
2023-02-14T11:00:11.571Z,70.93
2023-02-14T11:01:15.328Z,70.48
2023-02-14T11:02:17.248Z,69.87
2023-02-14T11:03:14.617Z,69.61
2023-02-14T11:04:15.861Z,69.96
2023-02-14T11:05:23.968Z,70.39
2023-02-14T11:06:20.621Z,71.62
2023-02-14T11:07:19.683Z,71.54
2023-02-14T11:08:24.620Z,72.78
2023-02-14T11:09:21.490Z,73.92
2023-02-14T11:10:24.370Z,73.81
2023-02-14T11:11:25.098Z,73.63
2023-02-14T11:12:38.284Z,72.65
2023-02-14T11:13:37.468Z,72.53
2023-02-14T11:14:37.338Z,72.85
2023-02-14T11:15:39.147Z,72.78
2023-02-14T11:16:37.582Z,72.49
2023-02-14T11:17:36.014Z,72.71
2023-02-14T11:18:35.851Z,72.40
2023-02-14T11:19:37.483Z,73.40
2023-02-14T11:20:34.211Z,73.28
2023-02-14T11:21:40.502Z,73.33
2023-02-14T11:22:37.096Z,73.07
2023-02-14T11:23:45.204Z,73.25
2023-02-14T11:24:42.395Z,73.91
2023-02-14T11:25:39.076Z,72.52
2023-02-14T11:26:35.844Z,71.59
2023-02-14T11:27:33.225Z,71.23
2023-02-14T11:28:29.981Z,72.43
2023-02-14T11:29:33.685Z,73.04
2023-02-14T11:30:35.271Z,71.67
2023-02-14T11:31:37.760Z,71.17
2023-02-14T11:32:40.836Z,72.17
2023-02-14T11:33:44.191Z,72.37
2023-02-14T11:35:00.500Z,72.43
2023-02-14T11:35:58.144Z,71.77
2023-02-14T11:36:54.864Z,71.89
2023-02-14T11:37:54.135Z,72.16
2023-02-14T11:39:21.844Z,71.61
2023-02-14T11:40:35.364Z,71.64
2023-02-14T11:41:50.105Z,71.49
2023-02-14T11:42:51.600Z,71.22
2023-02-14T11:43:52.437Z,70.78
2023-02-14T11:44:56.096Z,70.89
2023-02-14T11:46:05.912Z,72.56
2023-02-14T11:47:19.556Z,72.32
2023-02-14T11:48:39.453Z,72.69
2023-02-14T11:49:36.470Z,72.59
2023-02-14T11:50:42.791Z,72.92
2023-02-14T11:52:14.771Z,72.20
2023-02-14T11:53:27.748Z,71.67
2023-02-14T11:54:37.708Z,71.48
2023-02-14T11:55:37.484Z,71.25
2023-02-14T11:57:00.135Z,72.02
2023-02-14T11:58:11.493Z,72.02
2023-02-14T11:59:08.218Z,73.18
2023-02-14T12:00:16.866Z,73.79
2023-02-14T12:01:26.889Z,73.33
2023-02-14T12:02:28.493Z,73.71
2023-02-14T12:03:28.395Z,73.36
2023-02-14T12:04:46.259Z,72.31
2023-02-14T12:05:50.174Z,72.37
2023-02-14T12:06:53.258Z,72.09
2023-02-14T12:07:52.770Z,72.63
2023-02-14T12:08:49.331Z,72.92
2023-02-14T12:09:48.524Z,72.71
2023-02-14T12:11:01.041Z,71.65
2023-02-14T12:12:00.481Z,72.23
2023-02-14T12:13:04.473Z,71.56
2023-02-14T12:14:01.086Z,72.28
2023-02-14T12:15:38.112Z,72.25
2023-02-14T12:16:49.178Z,71.81
2023-02-14T12:17:48.040Z,71.35
2023-02-14T12:18:54.660Z,71.61
2023-02-14T12:20:15.318Z,71.21
2023-02-14T12:21:26.092Z,71.53
2023-02-14T12:22:39.736Z,71.97
2023-02-14T12:23:51.340Z,72.06
2023-02-14T12:24:57.251Z,71.21
2023-02-14T12:26:04.669Z,71.11
2023-02-14T12:27:07.367Z,70.73
2023-02-14T12:28:11.510Z,70.56
2023-02-14T12:29:23.357Z,69.75
2023-02-14T12:30:22.411Z,69.18
2023-02-14T12:31:19.630Z,69.63
2023-02-14T12:32:27.065Z,69.76
2023-02-14T12:33:26.044Z,69.20
2023-02-14T12:34:22.770Z,70.22
2023-02-14T12:35:28.954Z,70.84
2023-02-14T12:36:50.158Z,70.30
2023-02-14T12:38:06.010Z,70.74
2023-02-14T12:39:26.105Z,70.38
2023-02-14T12:40:49.255Z,68.96
2023-02-14T12:42:14.049Z,69.70
2023-02-14T12:43:22.601Z,68.67
2023-02-14T12:44:37.653Z,69.94
2023-02-14T12:46:19.352Z,70.19
2023-02-14T12:47:39.785Z,69.50
2023-02-14T12:48:54.845Z,68.74
2023-02-14T12:50:14.310Z,67.97
2023-02-14T12:51:34.666Z,67.04
2023-02-14T12:52:51.560Z,67.85
2023-02-14T12:54:14.796Z,68.34
2023-02-14T12:56:03.544Z,68.54
2023-02-14T12:57:18.646Z,67.80
2023-02-14T12:58:30.487Z,67.08
2023-02-14T12:59:49.308Z,67.67
2023-02-14T13:01:28.423Z,67.16
2023-02-14T13:02:44.190Z,67.55
2023-02-14T13:03:59.461Z,68.32
2023-02-14T13:05:09.353Z,68.98
2023-02-14T13:06:23.984Z,68.87
2023-02-14T13:07:41.827Z,68.50
2023-02-14T13:08:53.828Z,68.37
2023-02-14T13:10:09.093Z,68.66
2023-02-14T13:11:14.441Z,68.47
2023-02-14T13:12:36.227Z,68.16
2023-02-14T13:14:04.387Z,68.81
2023-02-14T13:15:12.844Z,68.08
2023-02-14T13:16:28.736Z,68.09
2023-02-14T13:17:29.652Z,69.67
2023-02-14T13:18:38.203Z,69.99